Time;durP1;ratioP1;P1;durP2;ratioP2;P2;SDS_P1;SDS_P2;PMS_P1;PMS_P2;Temp;Humidity;BMP_temperature;BMP_pressure;BME280_temperature;BME280_humidity;BME280_pressure;Samples;Min_cycle;Max_cycle;Signal;HPM_P1;HPM_P2
2023/09/12 00:01:07;;;;;;;26.27;22.98;;;20.40;99.90;;;;;;5072826;28;20039;-74
2023/09/12 00:03:34;;;;;;;21.85;19.65;;;20.40;99.90;;;;;;5070500;28;20047;-74
2023/09/12 00:06:02;;;;;;;26.30;23.50;;;20.30;99.90;;;;;;5107633;28;20027;-73
2023/09/12 00:08:29;;;;;;;23.42;20.95;;;20.40;99.90;;;;;;5058438;28;20035;-73
2023/09/12 00:11:03;;;;;;;21.77;19.55;;;20.40;99.90;;;;;;5069898;28;20043;-74
2023/09/12 00:13:30;;;;;;;23.13;19.90;;;20.30;99.90;;;;;;5091982;27;20039;-74
2023/09/12 00:15:57;;;;;;;21.40;19.00;;;20.30;99.90;;;;;;5089514;28;20035;-74
2023/09/12 00:18:23;;;;;;;20.25;17.95;;;20.20;99.90;;;;;;5089513;28;20036;-74
2023/09/12 00:20:51;;;;;;;23.02;20.40;;;20.20;99.90;;;;;;5071846;28;20058;-74
2023/09/12 00:23:19;;;;;;;26.77;23.90;;;20.20;99.90;;;;;;5088710;28;20036;-74
2023/09/12 00:25:46;;;;;;;23.92;21.13;;;20.20;99.90;;;;;;5092126;28;20039;-74
2023/09/12 00:28:12;;;;;;;28.10;23.25;;;20.20;99.90;;;;;;5089571;27;20031;-74
2023/09/12 00:30:39;;;;;;;22.98;20.60;;;20.10;99.90;;;;;;5074217;28;20034;-74
2023/09/12 00:33:05;;;;;;;21.23;18.95;;;20.10;99.90;;;;;;5095982;28;20364;-74
2023/09/12 00:35:32;;;;;;;20.75;18.55;;;20.00;99.90;;;;;;5078497;28;20031;-73
2023/09/12 00:37:58;;;;;;;20.92;18.75;;;20.00;99.90;;;;;;5072148;28;20047;-74
2023/09/12 00:40:24;;;;;;;21.10;18.80;;;20.00;99.90;;;;;;5054939;28;20027;-73
2023/09/12 00:42:51;;;;;;;23.95;21.38;;;20.00;99.90;;;;;;5089215;28;20031;-73
2023/09/12 00:45:17;;;;;;;23.02;20.55;;;20.00;99.90;;;;;;5071627;28;20047;-73
2023/09/12 00:47:44;;;;;;;23.48;21.02;;;20.00;99.90;;;;;;5071635;28;20039;-73
2023/09/12 00:50:11;;;;;;;23.20;20.67;;;19.90;99.90;;;;;;5071189;28;20035;-73
2023/09/12 00:52:39;;;;;;;26.95;24.15;;;19.90;99.90;;;;;;5052616;28;20063;-73
2023/09/12 00:55:06;;;;;;;27.85;24.85;;;19.90;99.90;;;;;;5087622;28;20032;-73
2023/09/12 00:57:34;;;;;;;29.05;25.75;;;19.90;99.90;;;;;;5089272;28;20034;-74
2023/09/12 01:00:13;;;;;;;29.55;25.77;;;19.90;99.90;;;;;;5071787;28;20042;-73
2023/09/12 01:02:45;;;;;;;25.20;22.50;;;19.90;99.90;;;;;;5089414;28;20040;-73
2023/09/12 01:05:14;;;;;;;24.05;21.55;;;20.00;99.90;;;;;;5088674;28;20028;-73
2023/09/12 01:07:43;;;;;;;28.42;25.35;;;20.00;99.90;;;;;;5089048;28;20043;-73
2023/09/12 01:10:10;;;;;;;21.88;19.60;;;20.00;99.90;;;;;;5059016;28;20050;-73
2023/09/12 01:12:36;;;;;;;20.42;18.23;;;19.90;99.90;;;;;;5085398;28;20035;-73
2023/09/12 01:15:08;;;;;;;19.58;17.58;;;19.80;99.90;;;;;;5068324;28;20375;-73
2023/09/12 01:17:34;;;;;;;21.77;18.95;;;19.80;99.90;;;;;;5046696;28;20050;-73
2023/09/12 01:20:04;;;;;;;19.95;17.42;;;19.80;99.90;;;;;;5053961;28;20407;-73
2023/09/12 01:22:49;;;;;;;19.92;17.75;;;19.70;99.90;;;;;;5054277;28;20040;-73
2023/09/12 01:25:31;;;;;;;17.85;16.02;;;19.60;99.90;;;;;;5071187;28;20039;-73
2023/09/12 01:28:02;;;;;;;18.23;16.13;;;19.60;99.90;;;;;;5070059;28;20032;-73
2023/09/12 01:30:32;;;;;;;18.13;16.10;;;19.60;99.90;;;;;;5088049;28;20047;-73
2023/09/12 01:33:00;;;;;;;16.42;14.77;;;19.50;99.90;;;;;;5091058;28;20035;-73
2023/09/12 01:35:26;;;;;;;17.23;15.43;;;19.50;99.90;;;;;;5075242;28;20070;-73
2023/09/12 01:37:53;;;;;;;19.63;16.70;;;19.40;99.90;;;;;;5075091;28;20043;-73
2023/09/12 01:40:33;;;;;;;18.17;16.25;;;19.40;99.90;;;;;;5056050;28;20039;-73
2023/09/12 01:43:00;;;;;;;19.60;17.52;;;19.40;99.90;;;;;;5108815;28;20058;-73
2023/09/12 01:45:27;;;;;;;18.15;16.25;;;19.40;99.90;;;;;;5067591;28;20039;-73
2023/09/12 01:47:55;;;;;;;20.30;18.10;;;19.30;99.90;;;;;;5091832;28;20039;-74
2023/09/12 01:50:23;;;;;;;18.23;16.33;;;19.30;99.90;;;;;;5050802;28;20051;-72
2023/09/12 01:52:49;;;;;;;17.38;15.57;;;19.30;99.90;;;;;;5092468;28;20038;-73
2023/09/12 01:55:17;;;;;;;17.02;15.23;;;19.30;99.90;;;;;;5091412;28;20038;-74
2023/09/12 01:57:44;;;;;;;19.13;16.48;;;19.20;99.90;;;;;;5092181;28;20039;-73
2023/09/12 02:00:12;;;;;;;18.40;16.33;;;19.20;99.90;;;;;;5058742;28;20027;-73
2023/09/12 02:02:39;;;;;;;19.60;17.63;;;19.20;99.90;;;;;;5092270;28;20126;-73
2023/09/12 02:05:18;;;;;;;19.23;17.23;;;19.20;99.90;;;;;;5058928;28;20482;-73
2023/09/12 02:07:46;;;;;;;18.13;16.27;;;19.10;99.90;;;;;;5075109;28;20481;-73
2023/09/12 02:10:12;;;;;;;16.80;15.05;;;19.10;99.90;;;;;;5057053;28;20036;-72
2023/09/12 02:12:39;;;;;;;18.20;16.30;;;19.10;99.90;;;;;;5074947;28;20035;-73
2023/09/12 02:15:07;;;;;;;18.45;16.55;;;19.10;99.90;;;;;;5073453;28;20046;-73
2023/09/12 02:17:34;;;;;;;17.92;16.02;;;19.10;99.90;;;;;;5074805;28;20043;-73
2023/09/12 02:20:04;;;;;;;17.80;15.95;;;19.00;99.90;;;;;;5109833;28;20038;-73
2023/09/12 02:22:30;;;;;;;16.33;14.63;;;19.00;99.90;;;;;;5055331;28;20040;-73
2023/09/12 02:24:57;;;;;;;17.75;15.95;;;19.00;99.90;;;;;;5093694;27;20030;-73
2023/09/12 02:27:23;;;;;;;18.50;15.65;;;19.00;99.90;;;;;;5074959;28;20367;-73
2023/09/12 02:29:50;;;;;;;15.70;13.60;;;18.90;99.90;;;;;;5093979;28;20040;-73
2023/09/12 02:32:17;;;;;;;16.08;13.57;;;18.90;99.90;;;;;;5091588;28;20031;-73
2023/09/12 02:34:43;;;;;;;16.60;14.85;;;18.90;99.90;;;;;;5073877;28;20031;-73
2023/09/12 02:37:10;;;;;;;18.25;16.45;;;18.90;99.90;;;;;;5091084;28;20401;-73
2023/09/12 02:39:36;;;;;;;16.90;15.25;;;18.80;99.90;;;;;;5057439;28;20040;-73
2023/09/12 02:42:03;;;;;;;17.63;15.05;;;18.80;99.90;;;;;;5090981;28;20050;-72
2023/09/12 02:44:29;;;;;;;13.98;12.57;;;18.80;99.90;;;;;;5086859;28;20394;-72
2023/09/12 02:46:55;;;;;;;15.10;13.60;;;18.80;99.90;;;;;;5090686;28;20067;-73
2023/09/12 02:49:22;;;;;;;14.88;13.30;;;18.70;99.90;;;;;;5090824;28;20028;-73
2023/09/12 02:51:48;;;;;;;14.00;12.60;;;18.70;99.90;;;;;;5074758;27;20548;-73
2023/09/12 02:54:15;;;;;;;16.60;14.07;;;18.70;99.90;;;;;;5090284;28;20031;-73
2023/09/12 02:56:41;;;;;;;14.77;13.27;;;18.70;99.90;;;;;;5057365;28;20039;-73
2023/09/12 02:59:08;;;;;;;14.93;13.32;;;18.70;99.90;;;;;;5090766;28;20030;-73
2023/09/12 03:01:34;;;;;;;15.38;13.35;;;18.70;99.90;;;;;;5090733;28;20066;-73
2023/09/12 03:04:01;;;;;;;17.15;15.45;;;18.70;99.90;;;;;;5073681;28;20046;-73
2023/09/12 03:06:29;;;;;;;16.45;14.73;;;18.60;99.90;;;;;;5090439;28;20031;-73
2023/09/12 03:08:55;;;;;;;16.65;14.95;;;18.60;99.90;;;;;;5073174;28;20047;-73
2023/09/12 03:11:21;;;;;;;17.75;15.63;;;18.60;99.90;;;;;;5109275;28;20044;-73
2023/09/12 03:13:48;;;;;;;17.60;15.75;;;18.60;99.90;;;;;;5092880;28;20039;-73
2023/09/12 03:16:15;;;;;;;16.15;14.45;;;18.60;99.90;;;;;;5083961;28;20048;-73
2023/09/12 03:18:41;;;;;;;13.95;12.50;;;18.50;99.90;;;;;;5068568;28;20035;-73
2023/09/12 03:21:07;;;;;;;15.82;14.10;;;18.50;99.90;;;;;;5081750;28;20051;-73
2023/09/12 03:23:34;;;;;;;13.85;12.45;;;18.50;99.90;;;;;;5090350;28;20031;-73
2023/09/12 03:26:05;;;;;;;13.88;12.48;;;18.50;99.90;;;;;;5070447;28;20414;-73
2023/09/12 03:28:33;;;;;;;15.97;14.37;;;18.40;99.90;;;;;;5079011;27;20413;-73
2023/09/12 03:31:16;;;;;;;15.98;14.38;;;18.40;99.90;;;;;;5072977;28;20296;-73
2023/09/12 03:33:49;;;;;;;16.05;14.38;;;18.40;99.90;;;;;;5053298;28;20693;-73
2023/09/12 03:36:17;;;;;;;;;;;18.40;99.90;;;;;;5090374;28;20505;-72
2023/09/12 03:38:43;;;;;;;14.73;13.20;;;18.40;99.90;;;;;;5056380;28;20294;-72
2023/09/12 03:41:10;;;;;;;14.43;12.88;;;18.40;99.90;;;;;;5073498;28;20038;-73
2023/09/12 03:43:37;;;;;;;13.95;12.52;;;18.40;99.90;;;;;;5090049;28;20055;-73
2023/09/12 03:46:04;;;;;;;15.10;13.50;;;18.40;99.90;;;;;;5089460;28;20048;-73
2023/09/12 03:48:31;;;;;;;13.95;12.50;;;18.40;99.90;;;;;;5079449;28;20066;-72
2023/09/12 03:50:58;;;;;;;14.15;12.52;;;18.40;99.90;;;;;;5073147;28;20043;-73
2023/09/12 03:53:26;;;;;;;17.23;14.63;;;18.40;99.90;;;;;;5072441;28;20035;-72
2023/09/12 03:55:53;;;;;;;16.05;14.43;;;18.50;99.90;;;;;;5089118;28;20045;-73
2023/09/12 03:58:19;;;;;;;15.35;13.75;;;18.50;99.90;;;;;;5069967;28;20040;-72
2023/09/12 04:00:46;;;;;;;16.25;14.55;;;18.50;99.90;;;;;;5072754;28;20036;-73
2023/09/12 04:03:12;;;;;;;16.55;14.82;;;18.60;99.90;;;;;;5072663;28;20387;-72
2023/09/12 04:05:39;;;;;;;13.10;11.75;;;18.60;99.90;;;;;;5070680;28;20054;-73
2023/09/12 04:08:05;;;;;;;14.13;12.73;;;18.60;99.90;;;;;;5058566;28;20027;-72
2023/09/12 04:10:32;;;;;;;14.40;13.07;;;18.70;99.90;;;;;;5089377;28;20397;-72
2023/09/12 04:12:58;;;;;;;14.63;13.13;;;18.80;99.90;;;;;;5053953;28;20032;-72
2023/09/12 04:15:25;;;;;;;17.13;15.30;;;18.80;99.90;;;;;;5071571;28;20394;-73
2023/09/12 04:17:51;;;;;;;16.50;14.07;;;18.80;99.90;;;;;;5072148;28;20038;-72
2023/09/12 04:20:18;;;;;;;18.30;15.20;;;18.90;99.90;;;;;;5072506;28;20699;-73
2023/09/12 04:22:44;;;;;;;15.65;14.00;;;18.90;99.90;;;;;;5051098;28;20149;-72
2023/09/12 04:25:11;;;;;;;17.25;15.25;;;19.00;99.90;;;;;;5071895;28;20027;-73
2023/09/12 04:27:38;;;;;;;15.02;13.45;;;19.00;99.90;;;;;;5063103;28;20607;-72
2023/09/12 04:30:05;;;;;;;16.52;14.73;;;19.00;99.90;;;;;;5074832;28;20044;-72
2023/09/12 04:32:32;;;;;;;15.00;13.40;;;19.10;99.90;;;;;;5084672;28;20385;-73
2023/09/12 04:34:59;;;;;;;15.98;13.02;;;19.10;99.90;;;;;;5046722;28;20491;-73
2023/09/12 04:37:25;;;;;;;18.88;14.77;;;19.10;99.90;;;;;;5071626;28;20059;-73
2023/09/12 04:39:52;;;;;;;18.13;15.25;;;19.10;99.90;;;;;;5071729;28;20039;-73
2023/09/12 04:42:20;;;;;;;17.80;14.55;;;19.10;99.90;;;;;;5072398;28;20378;-73
2023/09/12 04:44:48;;;;;;;20.45;16.52;;;19.10;99.90;;;;;;5088488;28;20031;-73
2023/09/12 04:47:14;;;;;;;17.60;15.10;;;19.10;99.90;;;;;;5072510;28;20050;-73
2023/09/12 04:49:43;;;;;;;18.77;16.33;;;19.10;99.90;;;;;;5088632;28;20062;-73
2023/09/12 04:52:10;;;;;;;20.25;17.80;;;19.10;99.90;;;;;;5072107;28;20031;-72
2023/09/12 04:54:36;;;;;;;20.88;17.38;;;19.10;99.90;;;;;;5051844;28;20479;-73
2023/09/12 04:57:03;;;;;;;21.52;18.00;;;19.10;99.90;;;;;;5071905;28;20043;-73
2023/09/12 04:59:30;;;;;;;24.73;19.50;;;19.20;99.90;;;;;;5071424;28;20031;-73
2023/09/12 05:01:56;;;;;;;28.40;21.42;;;19.20;99.90;;;;;;5072236;28;20478;-73
2023/09/12 05:04:22;;;;;;;23.42;20.33;;;19.30;99.90;;;;;;5067726;28;20036;-72
2023/09/12 05:06:49;;;;;;;25.52;21.50;;;19.30;99.90;;;;;;5055758;28;20039;-73
2023/09/12 05:09:16;;;;;;;115.10;31.55;;;19.30;99.90;;;;;;5064071;28;20032;-73
2023/09/12 05:11:42;;;;;;;33.13;25.38;;;19.40;99.90;;;;;;5071462;28;20032;-73
2023/09/12 05:14:09;;;;;;;32.13;24.02;;;19.40;99.90;;;;;;5082615;28;20051;-73
2023/09/12 05:16:35;;;;;;;25.55;22.05;;;19.40;99.90;;;;;;5068239;28;20604;-73
2023/09/12 05:19:02;;;;;;;26.38;22.98;;;19.40;99.90;;;;;;5082578;28;20399;-73
2023/09/12 05:21:30;;;;;;;24.15;21.23;;;19.40;99.90;;;;;;5085230;28;20488;-73
2023/09/12 05:23:56;;;;;;;22.73;19.98;;;19.40;99.90;;;;;;5052861;28;20043;-73
2023/09/12 05:26:23;;;;;;;26.55;22.67;;;19.50;99.90;;;;;;5089620;28;20093;-74
2023/09/12 05:28:49;;;;;;;22.92;19.45;;;19.50;99.90;;;;;;5062027;28;20032;-73
2023/09/12 05:31:16;;;;;;;26.73;22.90;;;19.50;99.90;;;;;;5087118;28;20042;-73
2023/09/12 05:33:42;;;;;;;26.25;23.40;;;19.60;99.90;;;;;;5047186;28;20048;-73
2023/09/12 05:36:09;;;;;;;31.75;25.80;;;19.60;99.90;;;;;;5105336;28;20028;-73
2023/09/12 05:38:36;;;;;;;33.35;26.25;;;19.60;99.90;;;;;;5088131;28;20046;-73
2023/09/12 05:41:02;;;;;;;31.15;25.08;;;19.70;99.90;;;;;;5087825;28;20031;-74
2023/09/12 05:43:29;;;;;;;31.17;26.10;;;19.70;99.90;;;;;;5086706;28;20046;-73
2023/09/12 05:45:57;;;;;;;28.38;24.42;;;19.70;99.90;;;;;;5086107;28;20038;-72
2023/09/12 05:48:24;;;;;;;32.60;26.10;;;19.70;99.90;;;;;;5061758;28;20020;-73
2023/09/12 05:50:51;;;;;;;33.47;29.52;;;19.70;99.90;;;;;;5052956;28;20036;-73
2023/09/12 05:53:18;;;;;;;39.13;32.08;;;19.70;99.90;;;;;;5070437;28;20039;-74
2023/09/12 05:55:44;;;;;;;37.45;31.35;;;19.80;99.90;;;;;;5073216;28;20027;-72
2023/09/12 05:58:11;;;;;;;42.63;33.47;;;19.80;99.90;;;;;;5070302;28;20039;-72
2023/09/12 06:00:37;;;;;;;38.97;30.80;;;19.80;99.90;;;;;;5086528;28;20039;-72
2023/09/12 06:03:04;;;;;;;39.83;31.35;;;19.90;99.90;;;;;;5079216;28;20035;-72
2023/09/12 06:05:30;;;;;;;40.28;30.70;;;19.90;99.90;;;;;;5087226;28;20027;-71
2023/09/12 06:07:57;;;;;;;37.47;29.75;;;19.90;99.90;;;;;;5072304;28;20031;-72
2023/09/12 06:10:23;;;;;;;32.13;26.38;;;19.90;99.90;;;;;;5071108;28;20042;-72
2023/09/12 06:12:50;;;;;;;37.40;29.20;;;19.90;99.90;;;;;;5070666;28;20395;-72
2023/09/12 06:15:17;;;;;;;36.33;28.77;;;20.00;99.90;;;;;;5062052;28;20403;-72
2023/09/12 06:17:43;;;;;;;36.72;28.88;;;20.00;99.90;;;;;;5065578;28;20043;-71
2023/09/12 06:20:10;;;;;;;40.63;31.55;;;20.10;99.90;;;;;;5091363;28;20035;-71
2023/09/12 06:22:36;;;;;;;41.33;32.22;;;20.20;99.90;;;;;;5061669;28;20062;-71
2023/09/12 06:25:03;;;;;;;33.45;28.00;;;20.20;99.90;;;;;;5071388;28;20015;-74
2023/09/12 06:27:31;;;;;;;33.50;27.02;;;20.20;99.90;;;;;;5087688;28;20036;-72
2023/09/12 06:29:57;;;;;;;35.13;27.33;;;20.20;99.90;;;;;;5090755;28;20047;-72
2023/09/12 06:32:24;;;;;;;40.38;30.98;;;20.30;99.90;;;;;;5091688;28;20488;-72
2023/09/12 06:34:50;;;;;;;33.72;26.55;;;20.30;99.90;;;;;;5074212;28;20024;-72
2023/09/12 06:37:18;;;;;;;33.40;27.30;;;20.30;99.90;;;;;;5095518;28;20038;-72
2023/09/12 06:39:44;;;;;;;47.08;35.88;;;20.30;99.90;;;;;;5078558;28;20040;-72
2023/09/12 06:42:11;;;;;;;42.70;33.88;;;20.30;99.90;;;;;;5074199;28;20577;-71
2023/09/12 06:44:37;;;;;;;39.47;29.85;;;20.40;99.90;;;;;;5074422;28;20036;-72
2023/09/12 10:54:39;;;;;;;10.13;8.40;;;27.20;99.90;;;;;;5086505;22;20045;-73
2023/09/12 10:57:08;;;;;;;10.43;9.32;;;27.60;99.90;;;;;;5030244;28;20590;-73
2023/09/12 10:59:38;;;;;;;10.95;9.05;;;27.90;99.90;;;;;;5030522;28;20033;-73
2023/09/12 11:02:31;;;;;;;8.15;7.38;;;28.20;99.90;;;;;;5009393;28;20051;-74
2023/09/12 11:04:59;;;;;;;10.73;9.63;;;28.50;99.90;;;;;;5046982;28;20025;-75
2023/09/12 11:07:37;;;;;;;9.45;8.48;;;29.10;99.90;;;;;;5034914;28;20109;-75
2023/09/12 11:10:18;;;;;;;9.95;8.95;;;29.90;99.90;;;;;;5037687;28;20053;-75
2023/09/12 11:12:46;;;;;;;10.93;8.70;;;30.40;99.90;;;;;;5050107;28;20407;-76
2023/09/12 11:15:15;;;;;;;10.77;9.70;;;30.60;99.90;;;;;;5035919;28;20048;-76
2023/09/12 11:17:42;;;;;;;6.55;5.93;;;30.40;99.90;;;;;;5039603;28;20040;-77
2023/09/12 11:20:10;;;;;;;7.40;6.15;;;30.00;99.90;;;;;;5046551;28;20048;-75
2023/09/12 11:22:41;;;;;;;9.80;8.55;;;29.50;99.90;;;;;;5043423;28;20059;-76
2023/09/12 11:25:16;;;;;;;7.03;5.88;;;29.00;99.90;;;;;;5026721;28;20033;-76
2023/09/12 11:27:52;;;;;;;7.40;5.65;;;28.80;99.90;;;;;;5018232;28;20052;-77
2023/09/12 11:30:20;;;;;;;7.47;5.82;;;29.40;99.90;;;;;;5039863;28;20045;-77
2023/09/12 11:32:50;;;;;;;6.03;5.43;;;29.80;99.90;;;;;;5043113;28;20028;-78
2023/09/12 11:35:23;;;;;;;9.25;5.13;;;30.10;99.90;;;;;;5030693;28;20032;-77
2023/09/12 11:38:00;;;;;;;9.77;7.72;;;30.00;99.90;;;;;;5026862;28;20029;-77
2023/09/12 11:40:46;;;;;;;5.53;5.03;;;29.90;99.90;;;;;;5042580;28;20029;-78
2023/09/12 11:43:23;;;;;;;4.60;4.07;;;29.60;99.90;;;;;;5047826;28;20586;-77
2023/09/12 11:45:51;;;;;;;7.18;6.45;;;29.60;99.90;;;;;;5049803;28;20041;-77
2023/09/12 11:48:18;;;;;;;5.25;4.75;;;30.10;99.90;;;;;;5047927;28;20373;-78
2023/09/12 11:50:56;;;;;;;5.65;3.78;;;30.90;99.90;;;;;;5029293;28;20041;-80
2023/09/12 11:53:27;;;;;;;3.88;3.58;;;31.70;99.90;;;;;;5018428;28;20035;-80
2023/09/12 11:56:00;;;;;;;5.68;4.65;;;32.40;99.90;;;;;;5032388;28;20502;-78
2023/09/12 11:58:27;;;;;;;6.97;4.63;;;33.00;99.40;;;;;;5047676;28;20030;-78
2023/09/12 12:00:57;;;;;;;4.00;3.60;;;33.50;98.10;;;;;;5043874;28;20555;-77
2023/09/12 12:03:25;;;;;;;4.88;4.35;;;34.00;97.40;;;;;;5034121;28;20033;-77
2023/09/12 12:05:56;;;;;;;3.53;3.22;;;34.50;96.60;;;;;;5030446;28;20048;-79
2023/09/12 12:08:23;;;;;;;3.90;3.30;;;34.90;95.50;;;;;;5030786;28;20029;-75
2023/09/12 12:10:51;;;;;;;5.88;4.80;;;35.50;95.30;;;;;;5047584;28;20045;-78
2023/09/12 12:18:02;;;;;;;6.10;2.92;;;35.60;92.60;;;;;;5051142;28;20534;-78
2023/09/12 12:20:30;;;;;;;3.08;2.33;;;34.80;91.90;;;;;;5030481;28;20341;-77
2023/09/12 12:22:56;;;;;;;5.43;3.67;;;33.90;91.70;;;;;;5047734;28;20051;-76
2023/09/12 12:25:23;;;;;;;4.40;3.30;;;33.00;92.50;;;;;;5031335;28;20037;-77
2023/09/12 12:27:50;;;;;;;4.13;3.03;;;32.30;92.60;;;;;;5031387;28;20392;-76
2023/09/12 12:30:19;;;;;;;3.65;3.35;;;31.50;93.20;;;;;;5047020;28;20044;-74
2023/09/12 13:20:03;;;;;;;3.37;1.80;;;27.00;99.70;;;;;;5031722;28;20396;-76
2023/09/12 13:22:30;;;;;;;3.42;2.42;;;26.80;99.90;;;;;;5021013;28;20033;-74
2023/09/12 13:24:56;;;;;;;4.13;3.60;;;26.80;99.90;;;;;;5008697;28;20049;-75
2023/09/12 13:27:22;;;;;;;3.75;3.17;;;26.80;99.90;;;;;;5022694;28;20502;-74
2023/09/12 13:29:49;;;;;;;5.10;4.47;;;26.90;99.90;;;;;;5025001;28;20040;-74
2023/09/12 13:32:17;;;;;;;4.70;4.13;;;27.00;99.90;;;;;;5027080;28;20392;-75
2023/09/12 13:34:45;;;;;;;6.25;4.90;;;27.30;99.90;;;;;;5043263;28;20037;-76
2023/09/12 13:37:11;;;;;;;4.72;4.28;;;28.40;99.90;;;;;;5032666;28;20032;-75
2023/09/12 13:39:38;;;;;;;4.78;4.38;;;29.80;99.20;;;;;;5026732;28;20476;-75
2023/09/12 13:42:08;;;;;;;5.57;4.43;;;31.30;97.60;;;;;;5026458;28;20044;-75
2023/09/12 13:44:34;;;;;;;4.32;3.92;;;32.50;95.90;;;;;;5047774;28;20036;-75
2023/09/12 13:47:00;;;;;;;5.85;3.45;;;33.40;94.70;;;;;;5003282;28;20044;-75
2023/09/12 13:49:27;;;;;;;4.88;3.05;;;34.30;93.50;;;;;;5030092;28;20052;-75
2023/09/12 13:51:53;;;;;;;2.70;2.30;;;34.70;91.90;;;;;;5020047;28;20055;-75
2023/09/12 13:54:19;;;;;;;3.72;2.85;;;34.60;91.90;;;;;;5014942;28;20044;-75
2023/09/12 13:56:46;;;;;;;5.80;3.20;;;34.50;91.50;;;;;;5045906;28;20483;-74
2023/09/12 13:59:13;;;;;;;4.95;2.58;;;34.70;91.00;;;;;;5042959;28;20040;-75
2023/09/12 14:01:39;;;;;;;6.38;4.22;;;35.40;90.50;;;;;;5027946;28;20043;-75
2023/09/12 14:04:06;;;;;;;3.40;3.08;;;35.80;89.20;;;;;;5046951;28;20021;-73
2023/09/12 14:06:33;;;;;;;3.22;2.42;;;35.60;87.90;;;;;;5024661;28;20030;-75
2023/09/12 14:09:00;;;;;;;3.25;2.72;;;34.70;88.40;;;;;;5045523;28;20114;-74
2023/09/12 14:11:26;;;;;;;3.83;2.70;;;33.80;89.50;;;;;;5051764;28;20395;-74
2023/09/12 14:13:52;;;;;;;3.22;2.75;;;32.80;90.10;;;;;;5032764;28;20029;-74
2023/09/12 14:16:19;;;;;;;3.38;2.40;;;32.10;90.70;;;;;;5044018;28;20037;-75
2023/09/12 14:18:45;;;;;;;3.63;3.10;;;31.60;91.30;;;;;;5044819;28;20036;-74
2023/09/12 14:21:11;;;;;;;3.03;2.20;;;31.20;91.80;;;;;;5012466;28;20044;-75
2023/09/12 14:23:38;;;;;;;2.88;2.15;;;30.90;92.30;;;;;;5048296;28;20044;-74
2023/09/12 14:26:04;;;;;;;2.55;1.95;;;30.60;92.60;;;;;;5052663;28;20036;-75
2023/09/12 14:28:34;;;;;;;3.08;2.10;;;30.20;92.80;;;;;;5050889;28;20025;-75
2023/09/12 14:31:03;;;;;;;2.72;1.88;;;29.80;93.10;;;;;;5013114;28;20033;-74
2023/09/12 14:33:30;;;;;;;2.22;2.00;;;29.40;93.60;;;;;;5044918;28;20498;-75
2023/09/12 14:35:57;;;;;;;3.13;1.85;;;29.10;94.10;;;;;;5030104;28;20510;-75
2023/09/12 14:38:24;;;;;;;4.05;2.50;;;28.80;94.40;;;;;;5039699;28;20033;-75
2023/09/12 14:40:53;;;;;;;4.95;2.10;;;28.60;94.70;;;;;;5053934;28;20038;-74
2023/09/12 14:43:19;;;;;;;3.55;2.38;;;28.40;95.00;;;;;;5021601;28;20381;-74
2023/09/12 14:45:45;;;;;;;2.60;1.98;;;28.20;95.10;;;;;;5049887;28;20057;-75
2023/09/12 14:48:12;;;;;;;2.05;1.85;;;28.00;94.90;;;;;;5023072;28;20395;-75
2023/09/12 14:50:38;;;;;;;3.15;2.20;;;27.80;94.80;;;;;;5038890;28;20040;-73
2023/09/12 14:53:06;;;;;;;2.17;1.55;;;27.70;95.30;;;;;;5049333;28;20033;-76
2023/09/12 14:55:32;;;;;;;3.28;2.63;;;27.50;95.60;;;;;;5044050;28;20025;-74
2023/09/12 14:57:59;;;;;;;3.25;2.95;;;27.40;95.80;;;;;;5040357;28;20030;-74
2023/09/12 15:00:26;;;;;;;4.70;3.30;;;27.20;96.10;;;;;;5044781;28;20022;-74
2023/09/12 15:02:52;;;;;;;2.90;2.60;;;27.10;96.40;;;;;;5037666;28;20044;-75
2023/09/12 15:05:18;;;;;;;2.72;2.20;;;27.10;96.90;;;;;;5043313;28;20048;-75
2023/09/12 15:07:44;;;;;;;2.85;2.45;;;26.90;97.30;;;;;;5021068;28;20068;-74
2023/09/12 15:10:11;;;;;;;3.15;2.60;;;26.90;97.60;;;;;;5043592;28;20468;-75
2023/09/12 15:12:37;;;;;;;3.97;2.72;;;26.90;97.90;;;;;;5021937;28;20384;-75
2023/09/12 15:15:04;;;;;;;4.18;3.00;;;26.80;98.00;;;;;;5028555;28;20048;-76
2023/09/12 15:17:31;;;;;;;4.25;3.80;;;26.80;98.10;;;;;;5027670;28;20024;-74
2023/09/12 15:19:57;;;;;;;4.95;4.10;;;26.80;98.40;;;;;;5042741;28;20029;-75
2023/09/12 15:22:24;;;;;;;6.93;4.97;;;26.70;98.40;;;;;;5048853;28;20041;-76
2023/09/12 15:24:50;;;;;;;6.82;4.50;;;26.60;98.40;;;;;;5025438;28;20037;-75
2023/09/12 15:27:17;;;;;;;6.72;4.20;;;26.50;98.30;;;;;;5044202;28;20041;-76
2023/09/12 15:29:44;;;;;;;5.80;4.50;;;26.40;98.30;;;;;;5043387;28;20479;-75
2023/09/12 15:32:10;;;;;;;5.10;4.32;;;26.40;98.60;;;;;;5024923;28;20439;-74
2023/09/12 15:34:37;;;;;;;5.57;4.85;;;26.40;98.80;;;;;;5025132;28;20055;-75
2023/09/12 15:37:11;;;;;;;5.07;4.05;;;26.40;98.70;;;;;;5028061;28;20032;-77
2023/09/12 15:39:38;;;;;;;5.20;3.60;;;26.30;98.70;;;;;;5020939;28;20062;-73
2023/09/12 15:42:05;;;;;;;4.93;4.18;;;26.30;99.00;;;;;;5030183;28;20486;-76
2023/09/12 15:44:32;;;;;;;4.65;3.85;;;26.30;99.20;;;;;;5037326;28;20036;-76
2023/09/12 15:46:58;;;;;;;6.15;4.97;;;26.20;99.00;;;;;;5022736;28;20032;-77
2023/09/12 15:49:26;;;;;;;4.70;4.13;;;26.20;99.10;;;;;;5048240;28;20025;-76
2023/09/12 15:51:53;;;;;;;5.35;3.70;;;26.10;99.20;;;;;;5045834;28;20021;-76
2023/09/12 15:54:19;;;;;;;5.40;4.20;;;26.20;99.40;;;;;;5023551;28;20480;-76
2023/09/12 15:56:46;;;;;;;3.85;3.50;;;26.10;99.60;;;;;;5017906;28;20041;-76
2023/09/12 15:59:12;;;;;;;3.75;3.20;;;26.10;99.60;;;;;;5054330;28;20036;-75
2023/09/12 16:01:39;;;;;;;5.35;3.92;;;26.10;99.60;;;;;;5034652;28;20044;-75
2023/09/12 16:04:06;;;;;;;3.47;2.92;;;26.10;99.70;;;;;;5042036;28;20371;-77
2023/09/12 16:06:32;;;;;;;3.50;3.20;;;26.10;99.80;;;;;;5024305;28;20371;-74
2023/09/12 16:08:59;;;;;;;4.70;3.92;;;26.10;99.90;;;;;;5022721;28;20037;-75
2023/09/12 16:11:25;;;;;;;6.07;4.03;;;26.10;99.90;;;;;;5040043;28;20036;-73
2023/09/12 16:13:51;;;;;;;4.40;3.97;;;26.10;99.90;;;;;;5043697;28;20051;-74
2023/09/12 16:16:18;;;;;;;5.75;5.25;;;26.10;99.90;;;;;;5021862;28;20033;-74
2023/09/12 16:18:45;;;;;;;5.55;4.70;;;26.00;99.90;;;;;;5013585;28;20044;-75
2023/09/12 16:21:11;;;;;;;4.40;4.00;;;26.00;99.90;;;;;;5039529;28;20037;-75
2023/09/12 16:23:38;;;;;;;5.53;3.63;;;26.00;99.90;;;;;;5042232;28;20472;-75
2023/09/12 16:26:04;;;;;;;4.65;4.10;;;26.00;99.90;;;;;;5008344;28;20044;-75
2023/09/12 16:28:31;;;;;;;3.90;3.38;;;25.90;99.90;;;;;;5041597;28;20530;-74
2023/09/12 16:30:57;;;;;;;3.83;3.40;;;25.80;99.90;;;;;;5043721;28;20079;-76
2023/09/12 16:33:23;;;;;;;4.05;3.65;;;25.70;99.90;;;;;;5037544;28;20503;-81
2023/09/12 16:35:50;;;;;;;4.93;4.28;;;25.70;99.90;;;;;;5042020;28;20535;-80
2023/09/12 16:38:17;;;;;;;4.28;3.72;;;25.60;99.90;;;;;;5045173;28;20051;-82
2023/09/12 16:40:46;;;;;;;5.38;4.43;;;25.50;99.90;;;;;;5055114;28;20048;-76
2023/09/12 16:43:12;;;;;;;8.98;7.55;;;25.40;99.90;;;;;;5033813;28;20051;-77
2023/09/12 16:45:39;;;;;;;7.32;6.63;;;25.30;99.90;;;;;;5026933;28;20046;-77
2023/09/12 16:48:06;;;;;;;6.35;5.57;;;25.30;99.90;;;;;;5035779;28;20055;-75
2023/09/12 16:50:32;;;;;;;5.60;4.60;;;25.20;99.90;;;;;;5017310;28;20037;-74
2023/09/12 16:52:58;;;;;;;6.60;5.90;;;25.20;99.90;;;;;;5041576;28;20041;-75
2023/09/12 16:55:26;;;;;;;4.85;4.15;;;25.10;99.90;;;;;;5020125;28;20045;-74
2023/09/12 16:57:52;;;;;;;3.60;3.28;;;25.10;99.90;;;;;;5032403;28;20045;-74
2023/09/12 17:00:19;;;;;;;5.43;3.70;;;25.00;99.90;;;;;;5005388;28;20484;-74
2023/09/12 17:02:45;;;;;;;3.42;3.05;;;25.00;99.90;;;;;;5016722;28;20037;-74
2023/09/12 17:05:11;;;;;;;3.15;2.85;;;24.90;99.90;;;;;;5042488;28;20233;-75
2023/09/12 17:07:38;;;;;;;3.28;2.97;;;24.80;99.90;;;;;;5029481;28;20060;-77
2023/09/12 17:10:05;;;;;;;3.33;3.03;;;24.80;99.90;;;;;;5044698;28;20412;-77
2023/09/12 17:12:31;;;;;;;4.70;3.45;;;24.70;99.90;;;;;;5040085;28;20037;-75
2023/09/12 17:14:58;;;;;;;3.92;3.50;;;24.70;99.90;;;;;;5041216;28;20072;-75
2023/09/12 17:17:25;;;;;;;4.00;3.17;;;24.60;99.90;;;;;;5018798;28;20071;-76
2023/09/12 17:19:51;;;;;;;3.92;3.47;;;24.60;99.90;;;;;;5054578;28;20392;-75
2023/09/12 17:22:17;;;;;;;5.38;4.05;;;24.60;99.90;;;;;;5012136;28;20041;-75
2023/09/12 17:24:46;;;;;;;7.10;5.95;;;24.50;99.90;;;;;;5049101;28;20480;-74
2023/09/12 17:27:12;;;;;;;8.57;7.00;;;24.50;99.90;;;;;;5023332;28;20068;-75
2023/09/12 17:29:38;;;;;;;5.75;5.18;;;24.40;99.90;;;;;;5042022;28;20040;-77
2023/09/12 17:32:09;;;;;;;5.68;4.93;;;24.30;99.90;;;;;;5034085;28;20063;-77
2023/09/12 17:34:42;;;;;;;4.97;4.47;;;24.30;99.90;;;;;;5039885;28;20071;-82
2023/09/12 17:37:09;;;;;;;5.88;5.03;;;24.20;99.90;;;;;;5022816;28;20029;-78